Time;durP1;ratioP1;P1;durP2;ratioP2;P2;SDS_P1;SDS_P2;PMS_P1;PMS_P2;Temp;Humidity;BMP_temperature;BMP_pressure;BME280_temperature;BME280_humidity;BME280_pressure;Samples;Min_cycle;Max_cycle;Signal;HPM_P1;HPM_P2
2024/01/01 00:01:38;;;;;;;12.73;8.80;;;5.80;22.30;;;;;;5026964;28;20475;-68
2024/01/01 00:04:06;;;;;;;15.00;9.90;;;5.80;22.30;;;;;;5027387;28;20847;-67
2024/01/01 00:06:33;;;;;;;18.57;10.33;;;5.80;22.20;;;;;;5027385;28;20459;-67
2024/01/01 00:09:00;;;;;;;15.30;10.97;;;5.80;22.40;;;;;;5026465;28;20481;-67
2024/01/01 00:11:26;;;;;;;19.10;11.43;;;5.80;22.30;;;;;;5028507;28;20446;-67
2024/01/01 00:13:53;;;;;;;21.87;12.83;;;5.80;22.30;;;;;;5027555;28;20482;-68
2024/01/01 00:16:20;;;;;;;17.90;11.43;;;5.80;22.00;;;;;;5028431;28;20482;-68
2024/01/01 00:18:47;;;;;;;17.33;12.17;;;5.80;22.10;;;;;;5028121;28;20455;-67
2024/01/01 00:21:15;;;;;;;17.37;12.50;;;5.70;22.20;;;;;;5026433;28;20481;-67
2024/01/01 00:23:42;;;;;;;18.60;12.00;;;5.70;22.30;;;;;;5028344;28;20485;-67
2024/01/01 00:26:08;;;;;;;16.80;11.60;;;5.60;22.40;;;;;;5028492;28;20461;-67
2024/01/01 00:28:35;;;;;;;22.00;12.17;;;5.60;22.40;;;;;;5028070;28;20470;-68
2024/01/01 00:31:02;;;;;;;20.90;11.90;;;5.60;22.30;;;;;;5023786;28;20481;-68
2024/01/01 00:33:29;;;;;;;15.57;10.20;;;5.50;22.40;;;;;;5028282;28;20483;-67
2024/01/01 00:35:55;;;;;;;16.20;10.70;;;5.50;22.40;;;;;;5027645;28;20855;-67
2024/01/01 00:38:23;;;;;;;15.53;9.90;;;5.50;22.30;;;;;;5029203;28;20462;-67
2024/01/01 00:40:50;;;;;;;18.30;10.70;;;5.50;22.50;;;;;;5026729;28;20455;-67
2024/01/01 00:43:17;;;;;;;18.97;10.67;;;5.40;22.40;;;;;;5024350;28;20478;-67
2024/01/01 00:45:43;;;;;;;17.77;10.33;;;5.40;22.50;;;;;;5027618;28;20811;-68
2024/01/01 00:48:10;;;;;;;15.97;9.73;;;5.30;22.60;;;;;;5028769;28;20459;-67
2024/01/01 00:50:37;;;;;;;14.10;8.83;;;5.30;22.60;;;;;;5028200;28;20458;-68
2024/01/01 00:53:04;;;;;;;12.83;8.93;;;5.30;22.50;;;;;;5026432;28;20486;-67
2024/01/01 00:55:32;;;;;;;13.97;9.87;;;5.30;22.60;;;;;;5026373;28;20470;-67
2024/01/01 00:57:59;;;;;;;15.57;10.00;;;5.30;22.70;;;;;;5025983;28;21194;-67
2024/01/01 01:00:25;;;;;;;18.50;9.80;;;5.20;22.50;;;;;;5023155;28;20507;-66
2024/01/01 01:02:52;;;;;;;16.40;10.40;;;5.20;22.50;;;;;;5017689;28;20487;-67
2024/01/01 01:05:19;;;;;;;15.43;10.60;;;5.20;22.60;;;;;;5020836;28;20467;-68
2024/01/01 01:07:46;;;;;;;18.57;10.60;;;5.10;22.70;;;;;;5030904;28;21024;-68
2024/01/01 01:10:13;;;;;;;37.10;10.40;;;5.10;22.80;;;;;;5027882;28;20463;-70
2024/01/01 01:12:41;;;;;;;15.30;9.27;;;5.10;22.90;;;;;;5028232;28;20487;-68
2024/01/01 01:15:08;;;;;;;15.73;9.27;;;5.20;23.10;;;;;;5031209;28;20462;-67
2024/01/01 01:17:34;;;;;;;15.97;9.90;;;5.20;23.00;;;;;;5027541;28;20470;-68
2024/01/01 01:20:01;;;;;;;17.80;10.40;;;5.10;23.00;;;;;;5023606;28;20989;-68
2024/01/01 01:22:28;;;;;;;16.57;8.47;;;5.10;22.80;;;;;;5026426;28;20482;-67
2024/01/01 01:24:55;;;;;;;15.20;8.77;;;5.10;22.70;;;;;;5031075;28;20462;-68
2024/01/01 01:27:21;;;;;;;18.23;9.30;;;5.00;22.70;;;;;;5031328;28;20467;-67
2024/01/01 01:29:49;;;;;;;15.03;7.60;;;5.00;22.60;;;;;;5028680;28;20471;-68
2024/01/01 01:32:17;;;;;;;12.40;7.43;;;5.00;22.80;;;;;;5020225;28;20473;-67
2024/01/01 01:34:43;;;;;;;10.97;7.30;;;5.00;22.80;;;;;;5030016;28;20462;-67
2024/01/01 01:37:10;;;;;;;9.80;6.23;;;5.00;22.70;;;;;;5029459;28;20463;-68
2024/01/01 01:39:37;;;;;;;13.10;7.27;;;5.00;23.00;;;;;;5020130;28;20542;-67
2024/01/01 01:42:04;;;;;;;11.80;7.70;;;5.00;23.10;;;;;;5026343;28;20954;-67
2024/01/01 01:44:34;;;;;;;14.13;6.87;;;5.00;23.30;;;;;;5028548;28;21030;-67
2024/01/01 01:47:02;;;;;;;13.33;7.53;;;5.00;23.50;;;;;;5029683;28;20498;-67
2024/01/01 01:49:29;;;;;;;12.87;7.00;;;5.00;23.40;;;;;;5027812;28;20466;-68
2024/01/01 01:51:57;;;;;;;13.13;8.00;;;4.90;23.50;;;;;;5030472;28;20459;-68
2024/01/01 01:54:25;;;;;;;11.13;6.33;;;4.90;23.50;;;;;;5029959;28;21031;-68
2024/01/01 01:56:54;;;;;;;11.70;6.40;;;4.90;23.50;;;;;;5027844;28;20459;-68
2024/01/01 01:59:22;;;;;;;12.73;6.57;;;4.90;23.70;;;;;;5021949;28;20498;-71
2024/01/01 02:01:50;;;;;;;10.00;5.90;;;4.90;23.70;;;;;;5029184;28;20487;-66
2024/01/01 02:04:18;;;;;;;10.67;5.87;;;4.90;23.60;;;;;;5027824;28;20481;-67
2024/01/01 02:06:45;;;;;;;11.17;6.47;;;4.90;23.50;;;;;;5028094;28;20555;-66
2024/01/01 02:09:12;;;;;;;12.47;6.87;;;4.90;23.60;;;;;;5022764;28;20548;-67
2024/01/01 02:11:39;;;;;;;12.10;6.40;;;4.80;23.50;;;;;;5029034;28;20931;-66
2024/01/01 02:14:10;;;;;;;9.87;6.20;;;4.80;23.50;;;;;;5031341;28;20490;-68
2024/01/01 02:16:37;;;;;;;13.50;6.83;;;4.90;23.70;;;;;;5030277;28;20452;-67
2024/01/01 02:19:08;;;;;;;13.23;6.50;;;4.90;24.70;;;;;;5026618;28;20459;-69
2024/01/01 02:21:36;;;;;;;12.67;6.70;;;4.90;24.00;;;;;;5027267;28;20891;-68
2024/01/01 02:24:05;;;;;;;10.23;6.10;;;4.80;24.00;;;;;;5029005;28;20494;-68
2024/01/01 02:26:32;;;;;;;10.70;6.60;;;4.80;24.20;;;;;;5028715;28;20474;-68
2024/01/01 02:28:58;;;;;;;12.63;7.43;;;4.80;24.20;;;;;;5028934;28;20458;-67
2024/01/01 02:31:25;;;;;;;14.63;8.27;;;4.80;24.30;;;;;;5025855;28;20474;-67
2024/01/01 02:33:52;;;;;;;14.37;7.90;;;4.90;24.60;;;;;;5048121;28;20451;-68
2024/01/01 02:36:19;;;;;;;13.03;7.67;;;4.90;24.80;;;;;;5054647;28;20457;-68
2024/01/01 02:38:45;;;;;;;13.83;7.77;;;4.90;25.00;;;;;;5032499;28;20455;-68
2024/01/01 02:41:14;;;;;;;13.63;8.27;;;4.90;24.90;;;;;;5066632;22;20497;-72
2024/01/01 02:43:40;;;;;;;12.83;7.43;;;4.90;25.60;;;;;;5062385;22;20470;-67
2024/01/01 02:46:07;;;;;;;12.97;7.43;;;4.90;25.10;;;;;;5049745;28;20450;-66
2024/01/01 02:48:34;;;;;;;12.50;7.80;;;4.90;25.00;;;;;;5054458;28;20468;-66
2024/01/01 02:51:00;;;;;;;15.70;9.27;;;4.90;25.00;;;;;;5052074;28;20997;-66
2024/01/01 02:53:27;;;;;;;13.87;7.90;;;4.90;24.90;;;;;;5048630;28;20496;-66
2024/01/01 02:55:54;;;;;;;15.33;9.93;;;4.80;25.00;;;;;;5046575;28;20473;-66
2024/01/01 02:58:22;;;;;;;12.67;8.73;;;4.80;25.10;;;;;;5046873;28;20957;-66
2024/01/01 03:00:48;;;;;;;18.20;9.17;;;4.80;25.40;;;;;;5044694;28;20478;-67
2024/01/01 03:03:16;;;;;;;17.03;8.90;;;4.70;25.70;;;;;;5043335;28;20981;-66
2024/01/01 03:05:43;;;;;;;17.13;10.20;;;4.70;26.40;;;;;;5045750;28;20467;-66
2024/01/01 03:08:10;;;;;;;14.97;9.60;;;4.70;25.90;;;;;;5042590;28;20476;-66
2024/01/01 03:10:37;;;;;;;17.80;9.97;;;4.70;25.90;;;;;;5045360;28;20835;-66
2024/01/01 03:13:03;;;;;;;19.13;10.67;;;4.70;25.80;;;;;;5047473;28;20986;-66
2024/01/01 03:15:32;;;;;;;18.70;9.90;;;4.70;25.90;;;;;;5047330;28;20511;-66
2024/01/01 03:17:58;;;;;;;15.43;8.80;;;4.70;25.80;;;;;;5047772;28;20458;-67
2024/01/01 03:20:30;;;;;;;16.67;9.17;;;4.70;25.70;;;;;;5048492;28;20458;-66
2024/01/01 03:22:57;;;;;;;15.60;9.40;;;4.70;25.70;;;;;;5037103;28;20483;-67
2024/01/01 03:25:24;;;;;;;15.60;8.50;;;4.70;25.50;;;;;;5044862;28;20477;-66
2024/01/01 03:27:50;;;;;;;15.77;8.20;;;4.70;25.60;;;;;;5044716;28;20493;-66
2024/01/01 03:30:19;;;;;;;17.50;9.50;;;4.70;25.50;;;;;;5046228;28;20462;-66
2024/01/01 03:32:47;;;;;;;12.50;7.93;;;4.70;25.40;;;;;;5046602;28;20480;-67
2024/01/01 03:35:14;;;;;;;13.50;9.10;;;4.70;25.20;;;;;;5046951;28;20450;-66
2024/01/01 03:37:41;;;;;;;13.37;8.03;;;4.70;25.20;;;;;;5045683;28;20467;-67
2024/01/01 03:40:08;;;;;;;14.57;8.30;;;4.70;25.10;;;;;;5041462;28;20837;-67
2024/01/01 03:42:35;;;;;;;12.13;7.10;;;4.80;24.80;;;;;;5044206;28;20572;-67
2024/01/01 03:45:02;;;;;;;11.67;7.60;;;4.80;24.80;;;;;;5042163;28;20469;-67
2024/01/01 03:47:29;;;;;;;14.07;7.07;;;4.80;24.90;;;;;;5042457;28;20473;-66
2024/01/01 03:49:57;;;;;;;15.47;8.27;;;4.80;24.60;;;;;;5046820;28;20937;-66
2024/01/01 03:52:24;;;;;;;15.70;8.10;;;4.80;24.70;;;;;;5046356;28;20454;-66
2024/01/01 03:54:51;;;;;;;18.73;9.23;;;4.80;25.00;;;;;;5044187;28;20462;-67
2024/01/01 03:57:18;;;;;;;12.03;7.00;;;4.80;24.80;;;;;;5041515;28;20466;-67
2024/01/01 03:59:45;;;;;;;16.73;9.40;;;4.90;25.00;;;;;;5043968;28;20465;-67
2024/01/01 04:02:11;;;;;;;15.40;8.90;;;4.90;25.00;;;;;;5040043;28;20478;-67
2024/01/01 04:04:38;;;;;;;11.80;8.23;;;4.90;25.40;;;;;;5044115;28;20479;-66
2024/01/01 04:07:06;;;;;;;14.90;8.60;;;5.00;24.90;;;;;;5044688;28;20477;-66
2024/01/01 04:09:33;;;;;;;15.43;8.23;;;5.00;24.90;;;;;;5043379;28;20462;-67
2024/01/01 04:11:59;;;;;;;12.70;7.03;;;5.10;24.80;;;;;;5044160;28;20470;-67
2024/01/01 04:14:26;;;;;;;18.27;7.17;;;5.10;24.70;;;;;;5044672;28;20474;-67
2024/01/01 04:16:53;;;;;;;13.97;7.40;;;5.20;24.40;;;;;;5046439;28;20454;-67
2024/01/01 04:19:21;;;;;;;12.07;7.50;;;5.20;24.40;;;;;;5047301;28;20473;-67
2024/01/01 04:21:48;;;;;;;14.23;7.00;;;5.20;24.40;;;;;;5042884;28;20469;-66
2024/01/01 04:24:16;;;;;;;11.77;5.80;;;5.30;23.90;;;;;;5043356;28;20509;-67
2024/01/01 04:26:43;;;;;;;13.87;6.70;;;5.30;23.90;;;;;;5047332;28;20462;-67
2024/01/01 04:29:10;;;;;;;11.07;6.17;;;5.40;23.90;;;;;;5041992;28;20454;-66
2024/01/01 04:31:36;;;;;;;11.50;6.83;;;5.30;24.00;;;;;;5040535;28;20831;-66
2024/01/01 04:34:03;;;;;;;9.67;5.60;;;5.30;23.90;;;;;;5044257;28;20470;-66
2024/01/01 04:36:30;;;;;;;10.07;5.63;;;5.30;23.90;;;;;;5044111;28;20469;-67
2024/01/01 04:38:57;;;;;;;9.23;5.17;;;5.30;23.80;;;;;;5044734;28;20462;-67
2024/01/01 04:41:25;;;;;;;11.40;5.70;;;5.30;23.90;;;;;;5047777;28;20469;-66
2024/01/01 04:43:52;;;;;;;11.00;5.20;;;5.40;23.90;;;;;;5046834;28;20825;-66
2024/01/01 04:46:19;;;;;;;9.97;6.07;;;5.40;23.80;;;;;;5047547;28;20468;-66
2024/01/01 04:48:45;;;;;;;8.37;4.43;;;5.40;23.80;;;;;;5048990;28;21130;-67
2024/01/01 04:51:12;;;;;;;9.83;4.13;;;5.40;23.70;;;;;;5049438;28;20477;-66
2024/01/01 04:53:39;;;;;;;8.40;4.10;;;5.40;23.50;;;;;;5049757;28;20488;-66
2024/01/01 04:56:06;;;;;;;8.47;4.10;;;5.40;23.50;;;;;;5049273;28;20477;-67
2024/01/01 04:58:34;;;;;;;9.80;4.70;;;5.50;23.50;;;;;;5045046;28;20462;-66
2024/01/01 05:01:01;;;;;;;5.70;2.73;;;5.40;23.40;;;;;;5047490;28;20568;-67
2024/01/01 05:03:28;;;;;;;7.83;3.30;;;5.40;23.50;;;;;;5047317;28;20517;-67
2024/01/01 05:05:55;;;;;;;10.10;3.73;;;5.50;23.30;;;;;;5046606;28;20465;-67
2024/01/01 05:08:21;;;;;;;6.00;2.83;;;5.50;23.10;;;;;;5045158;28;20974;-66
2024/01/01 05:10:48;;;;;;;6.03;2.10;;;5.50;23.00;;;;;;5047883;28;20465;-67
2024/01/01 05:13:16;;;;;;;12.03;3.27;;;5.50;22.80;;;;;;5044912;28;20477;-67
2024/01/01 05:15:44;;;;;;;8.93;2.20;;;5.50;22.70;;;;;;5046209;28;20545;-67
2024/01/01 05:18:10;;;;;;;7.43;2.83;;;5.40;22.70;;;;;;5045610;28;20470;-67
2024/01/01 05:20:37;;;;;;;6.67;2.30;;;5.40;22.90;;;;;;5044417;28;20459;-67
2024/01/01 05:23:04;;;;;;;4.93;2.03;;;5.40;23.00;;;;;;5048263;28;21012;-66
2024/01/01 05:25:31;;;;;;;7.00;2.27;;;5.40;22.90;;;;;;5045921;28;20461;-66
2024/01/01 05:27:57;;;;;;;8.30;2.23;;;5.40;22.90;;;;;;5048855;28;20893;-67
2024/01/01 05:30:27;;;;;;;5.23;2.07;;;5.40;22.90;;;;;;5046611;28;20457;-66
2024/01/01 05:32:55;;;;;;;5.40;2.40;;;5.30;22.90;;;;;;5046807;28;20475;-66
2024/01/01 05:35:22;;;;;;;5.43;2.10;;;5.30;22.90;;;;;;5045166;28;20454;-67
2024/01/01 05:37:49;;;;;;;6.80;2.10;;;5.30;23.00;;;;;;5047711;28;20939;-66
2024/01/01 05:40:15;;;;;;;5.30;1.70;;;5.20;23.00;;;;;;5049413;28;20454;-66
2024/01/01 05:42:42;;;;;;;4.70;1.70;;;5.20;23.10;;;;;;5047844;28;20503;-66
2024/01/01 05:45:09;;;;;;;5.83;1.90;;;5.20;23.20;;;;;;5048308;28;20462;-67
2024/01/01 05:47:36;;;;;;;5.03;1.67;;;5.20;23.50;;;;;;5048731;28;20947;-67
2024/01/01 05:50:04;;;;;;;4.50;1.80;;;5.10;23.60;;;;;;5050783;28;20458;-67
2024/01/01 05:52:31;;;;;;;6.43;1.80;;;5.10;23.60;;;;;;5046021;28;20466;-67
2024/01/01 05:54:58;;;;;;;5.47;1.67;;;5.10;23.70;;;;;;5047418;28;20458;-67
2024/01/01 05:57:24;;;;;;;7.43;1.80;;;5.10;23.80;;;;;;5047355;28;20473;-67
2024/01/01 05:59:51;;;;;;;7.13;1.87;;;5.10;23.90;;;;;;5046783;28;20527;-67
2024/01/01 06:02:18;;;;;;;6.37;1.90;;;5.00;23.90;;;;;;5045733;28;20470;-66
2024/01/01 06:04:44;;;;;;;4.70;1.80;;;5.00;24.10;;;;;;5044663;28;20489;-66
2024/01/01 06:07:12;;;;;;;5.30;1.80;;;5.00;24.10;;;;;;5047387;28;20923;-66
2024/01/01 06:09:39;;;;;;;4.90;1.60;;;5.00;24.20;;;;;;5049102;28;20963;-67
2024/01/01 06:12:06;;;;;;;5.97;1.60;;;5.00;24.30;;;;;;5046308;28;20477;-67
2024/01/01 06:14:33;;;;;;;4.00;1.60;;;4.90;24.50;;;;;;5048604;28;20477;-67
2024/01/01 06:17:00;;;;;;;4.87;2.10;;;5.00;24.50;;;;;;5048724;28;20466;-67
2024/01/01 06:19:27;;;;;;;6.23;1.70;;;5.00;24.60;;;;;;5044903;28;20953;-67
2024/01/01 06:21:53;;;;;;;5.10;1.87;;;4.90;24.70;;;;;;5049901;28;20466;-67
2024/01/01 06:24:21;;;;;;;7.83;1.57;;;4.90;24.90;;;;;;5045449;28;20497;-66
2024/01/01 06:26:48;;;;;;;4.97;1.50;;;4.90;25.00;;;;;;5047088;28;20466;-67
2024/01/01 06:29:15;;;;;;;4.80;1.87;;;4.90;25.10;;;;;;5045818;28;20501;-66
2024/01/01 06:31:41;;;;;;;8.23;2.50;;;4.90;25.20;;;;;;5046798;28;20474;-66
2024/01/01 06:34:08;;;;;;;4.97;1.60;;;4.90;25.10;;;;;;5044766;28;20482;-66
2024/01/01 06:36:35;;;;;;;5.73;2.17;;;4.90;25.30;;;;;;5049116;28;20462;-66
2024/01/01 06:39:03;;;;;;;5.70;2.03;;;4.90;25.20;;;;;;5048280;28;20450;-66
2024/01/01 06:41:31;;;;;;;5.03;2.03;;;4.90;25.40;;;;;;5046617;28;20954;-66
2024/01/01 06:43:57;;;;;;;4.80;1.87;;;4.90;25.40;;;;;;5049459;28;20488;-66
2024/01/01 06:46:24;;;;;;;4.50;1.50;;;4.90;25.30;;;;;;5046285;28;20461;-66
2024/01/01 06:48:51;;;;;;;6.47;1.90;;;4.90;25.30;;;;;;5045010;28;20993;-66
2024/01/01 06:51:17;;;;;;;4.83;1.47;;;4.90;25.50;;;;;;5047619;28;20462;-66
2024/01/01 06:53:44;;;;;;;4.97;1.40;;;4.90;25.40;;;;;;5045303;28;20466;-66
2024/01/01 06:56:11;;;;;;;9.00;1.73;;;4.90;25.50;;;;;;5043161;28;20465;-66
2024/01/01 06:58:39;;;;;;;6.10;1.63;;;4.90;25.50;;;;;;5044310;28;20835;-66
2024/01/01 07:01:05;;;;;;;5.40;1.50;;;4.90;25.50;;;;;;5042086;28;20486;-66
2024/01/01 07:03:32;;;;;;;6.00;2.00;;;5.00;25.40;;;;;;5042372;28;20494;-66
2024/01/01 07:05:59;;;;;;;11.57;2.30;;;5.00;25.40;;;;;;5047347;28;20962;-66
2024/01/01 07:08:25;;;;;;;4.50;1.40;;;4.90;25.50;;;;;;5045118;28;20462;-66
2024/01/01 07:10:52;;;;;;;4.60;1.77;;;5.00;25.40;;;;;;5044944;28;20758;-66
2024/01/01 07:13:19;;;;;;;7.27;1.60;;;4.90;25.30;;;;;;5045221;28;20474;-66
2024/01/01 07:15:47;;;;;;;4.93;1.20;;;4.90;25.40;;;;;;5046986;28;20465;-66
2024/01/01 07:18:16;;;;;;;4.53;1.30;;;4.90;25.30;;;;;;5037742;28;20466;-66
2024/01/01 07:20:44;;;;;;;8.00;2.00;;;5.00;25.10;;;;;;5046910;28;20466;-66
2024/01/01 07:23:11;;;;;;;7.67;1.40;;;5.00;25.10;;;;;;5044791;28;20469;-67
2024/01/01 07:25:38;;;;;;;5.30;1.87;;;5.00;25.10;;;;;;5045987;28;21028;-66
2024/01/01 07:28:05;;;;;;;4.13;1.27;;;5.00;25.00;;;;;;5044282;28;20574;-66
2024/01/01 07:30:31;;;;;;;3.93;1.20;;;5.10;24.90;;;;;;5038932;28;20464;-66
2024/01/01 07:32:59;;;;;;;5.87;1.53;;;5.10;24.70;;;;;;5045395;28;20493;-66
2024/01/01 07:35:27;;;;;;;5.30;1.27;;;5.20;24.50;;;;;;5043170;28;20935;-66
2024/01/01 07:37:54;;;;;;;6.47;1.80;;;5.20;24.40;;;;;;5045486;28;20541;-66
2024/01/01 07:40:20;;;;;;;5.07;1.87;;;5.30;25.00;;;;;;5047333;28;20466;-66
2024/01/01 07:42:47;;;;;;;7.60;1.23;;;5.30;24.10;;;;;;5042951;28;21105;-66
2024/01/01 07:45:14;;;;;;;6.33;2.63;;;5.40;24.00;;;;;;5044160;28;20504;-66
2024/01/01 07:47:41;;;;;;;4.30;1.40;;;5.40;23.60;;;;;;5046929;28;20465;-66
2024/01/01 07:50:09;;;;;;;9.87;2.63;;;5.60;23.50;;;;;;5043129;28;20458;-66
2024/01/01 07:52:37;;;;;;;7.73;1.70;;;5.70;23.30;;;;;;5041528;28;20463;-66
2024/01/01 07:55:04;;;;;;;4.57;1.30;;;5.80;22.90;;;;;;5043501;28;20989;-66
2024/01/01 07:57:30;;;;;;;4.80;1.20;;;6.00;22.90;;;;;;5047147;28;20468;-66
2024/01/01 07:59:58;;;;;;;6.77;2.27;;;6.10;22.20;;;;;;5046369;28;20450;-66
2024/01/01 08:02:25;;;;;;;5.03;1.70;;;6.30;21.80;;;;;;5042884;28;21303;-66
2024/01/01 08:04:53;;;;;;;4.07;1.33;;;6.40;20.70;;;;;;5043841;28;20482;-66
2024/01/01 08:07:21;;;;;;;5.07;1.77;;;6.60;20.60;;;;;;5041986;28;20808;-65
2024/01/01 08:09:48;;;;;;;5.97;1.20;;;6.90;19.90;;;;;;5046617;28;20470;-66
2024/01/01 08:12:15;;;;;;;5.87;1.50;;;7.40;18.70;;;;;;5041593;28;20851;-63
2024/01/01 08:14:42;;;;;;;7.17;1.90;;;7.90;17.60;;;;;;5042644;28;20482;-65
2024/01/01 08:17:09;;;;;;;8.20;1.90;;;8.60;16.20;;;;;;5047041;28;20860;-65
2024/01/01 08:19:35;;;;;;;7.40;1.80;;;9.20;14.20;;;;;;5043414;28;20461;-64
2024/01/01 08:22:02;;;;;;;4.90;1.50;;;9.70;12.80;;;;;;5038835;28;20463;-64
2024/01/01 08:24:30;;;;;;;7.47;2.60;;;10.20;11.50;;;;;;5042825;28;20487;-64
2024/01/01 08:26:57;;;;;;;5.80;1.60;;;10.40;10.70;;;;;;5044823;28;20454;-64
2024/01/01 08:29:24;;;;;;;5.97;1.53;;;10.50;9.70;;;;;;5043396;28;20464;-64
2024/01/01 08:31:50;;;;;;;4.67;1.60;;;10.80;9.50;;;;;;5043324;28;20474;-64
2024/01/01 08:34:17;;;;;;;5.60;1.70;;;11.10;8.80;;;;;;5047388;28;20473;-64
2024/01/01 08:36:44;;;;;;;7.67;1.90;;;11.50;8.20;;;;;;5045702;28;20454;-64
2024/01/01 08:39:10;;;;;;;6.40;2.10;;;11.70;7.10;;;;;;5047087;28;21008;-67
2024/01/01 08:41:43;;;;;;;4.73;1.37;;;11.40;7.50;;;;;;5132763;22;20498;-70
2024/01/01 08:44:10;;;;;;;6.30;1.67;;;11.00;7.60;;;;;;5027053;28;20513;-69
2024/01/01 08:46:37;;;;;;;4.83;1.60;;;10.60;7.90;;;;;;5027498;28;20458;-69
2024/01/01 08:49:04;;;;;;;4.90;1.70;;;10.30;8.50;;;;;;5026300;28;20454;-69
2024/01/01 08:51:31;;;;;;;8.33;1.53;;;9.90;9.20;;;;;;5022059;28;20467;-70
2024/01/01 08:53:57;;;;;;;6.17;1.93;;;9.70;9.80;;;;;;5026839;28;20474;-69
2024/01/01 08:56:24;;;;;;;4.63;1.30;;;9.50;10.90;;;;;;5027061;28;20455;-69
2024/01/01 08:58:52;;;;;;;12.63;2.40;;;9.40;10.90;;;;;;5023250;28;20458;-69
2024/01/01 09:01:19;;;;;;;4.33;1.20;;;9.30;11.20;;;;;;5019583;28;20475;-69
2024/01/01 09:03:46;;;;;;;8.03;1.63;;;9.10;11.40;;;;;;5023982;28;20468;-69
2024/01/01 09:06:12;;;;;;;7.60;1.90;;;8.90;11.90;;;;;;5018587;28;20488;-69
2024/01/01 09:08:39;;;;;;;4.73;1.60;;;8.70;12.30;;;;;;5025306;28;20456;-69
2024/01/01 09:11:06;;;;;;;6.50;1.60;;;8.60;12.80;;;;;;5023183;28;20831;-70
2024/01/01 09:13:33;;;;;;;4.40;1.40;;;8.40;13.30;;;;;;5024037;28;20474;-69
2024/01/01 09:16:02;;;;;;;4.60;1.50;;;8.30;13.70;;;;;;5026399;28;20514;-69
2024/01/01 09:18:29;;;;;;;4.40;1.43;;;8.20;14.10;;;;;;5024113;28;20939;-69
2024/01/01 09:20:56;;;;;;;4.73;1.50;;;8.20;14.50;;;;;;5022661;28;20459;-69
2024/01/01 09:23:26;;;;;;;6.47;2.33;;;8.30;14.60;;;;;;5023834;28;20463;-69
2024/01/01 09:25:54;;;;;;;4.80;1.83;;;8.50;15.00;;;;;;5025030;28;21252;-69
2024/01/01 09:28:21;;;;;;;7.07;1.73;;;8.90;14.10;;;;;;5027305;28;20478;-69
2024/01/01 09:30:47;;;;;;;5.60;1.70;;;8.90;13.80;;;;;;5021554;28;20483;-70
2024/01/01 09:33:15;;;;;;;4.03;1.20;;;8.90;13.70;;;;;;5026483;28;20469;-69
2024/01/01 09:35:43;;;;;;;5.70;1.60;;;8.80;13.70;;;;;;5028802;28;20489;-69
2024/01/01 09:38:09;;;;;;;5.57;2.10;;;8.70;13.80;;;;;;5028473;28;20519;-70
2024/01/01 09:40:36;;;;;;;4.57;1.70;;;8.70;14.20;;;;;;5022081;28;20470;-69
2024/01/01 09:43:03;;;;;;;7.43;1.67;;;8.70;14.40;;;;;;5029177;28;20471;-70
2024/01/01 09:45:31;;;;;;;4.97;1.80;;;8.80;14.20;;;;;;5029276;28;20513;-70
2024/01/01 09:47:58;;;;;;;5.83;1.43;;;8.80;14.20;;;;;;5029973;28;20459;-69
2024/01/01 09:50:26;;;;;;;7.00;1.73;;;8.90;14.10;;;;;;5025749;28;20495;-69
2024/01/01 09:52:59;;;;;;;5.47;1.70;;;9.10;14.40;;;;;;5025834;28;21094;-70
2024/01/01 09:55:26;;;;;;;7.10;2.20;;;9.40;14.40;;;;;;5027561;28;21044;-73
2024/01/01 09:57:52;;;;;;;6.37;1.80;;;9.60;13.80;;;;;;5024564;28;20458;-70
2024/01/01 10:00:22;;;;;;;6.07;2.10;;;9.90;13.10;;;;;;5025029;28;20546;-71
2024/01/01 10:02:49;;;;;;;4.63;1.53;;;10.10;12.50;;;;;;5026569;28;20466;-70
2024/01/01 10:05:17;;;;;;;7.27;1.80;;;10.40;11.60;;;;;;5026318;28;20489;-70
2024/01/01 10:07:47;;;;;;;5.53;2.13;;;10.60;10.90;;;;;;5025577;28;20996;-70
2024/01/01 10:10:27;;;;;;;5.03;1.80;;;10.90;10.50;;;;;;5022501;28;20847;-71
2024/01/01 10:12:53;;;;;;;4.53;1.30;;;11.10;9.80;;;;;;5024940;28;20520;-68
2024/01/01 10:15:22;;;;;;;5.40;1.50;;;11.30;9.00;;;;;;5027169;28;20490;-70
2024/01/01 10:17:48;;;;;;;5.27;1.60;;;11.40;8.50;;;;;;5021636;28;20557;-69
2024/01/01 10:20:19;;;;;;;5.77;1.20;;;11.60;7.80;;;;;;5018922;28;20456;-69
2024/01/01 10:22:47;;;;;;;4.50;1.20;;;11.50;7.30;;;;;;5026839;28;20979;-70
2024/01/01 10:25:15;;;;;;;3.73;0.90;;;11.60;7.00;;;;;;5018073;28;20495;-69
2024/01/01 10:27:43;;;;;;;6.50;0.90;;;11.70;6.70;;;;;;5021146;28;20475;-70
2024/01/01 10:30:11;;;;;;;5.50;0.93;;;11.70;6.70;;;;;;5022967;28;20463;-70
2024/01/01 10:32:40;;;;;;;4.60;0.70;;;11.90;6.70;;;;;;5014938;28;20547;-68
2024/01/01 10:35:09;;;;;;;5.77;1.60;;;12.10;6.40;;;;;;5018199;28;20506;-68
2024/01/01 10:37:37;;;;;;;5.63;1.50;;;12.20;6.10;;;;;;5021126;28;20551;-68
2024/01/01 10:40:07;;;;;;;3.73;1.00;;;12.30;5.80;;;;;;5017564;28;20487;-69
2024/01/01 10:42:34;;;;;;;4.80;1.43;;;12.30;5.40;;;;;;5022209;28;20959;-68
2024/01/01 10:45:03;;;;;;;3.50;0.83;;;12.30;5.00;;;;;;5022715;28;20537;-68
2024/01/01 10:47:30;;;;;;;5.23;1.00;;;12.30;4.80;;;;;;5016045;28;20471;-71
2024/01/01 10:50:11;;;;;;;4.07;1.00;;;12.30;5.20;;;;;;5016539;28;21237;-70
2024/01/01 10:52:56;;;;;;;7.00;1.47;;;12.40;5.20;;;;;;5019655;28;20903;-69
2024/01/01 10:55:50;;;;;;;6.47;1.70;;;12.40;4.70;;;;;;5019786;28;20479;-69
2024/01/01 10:58:30;;;;;;;3.77;1.13;;;12.40;4.90;;;;;;5008961;28;20467;-70
2024/01/01 11:01:04;;;;;;;4.07;1.00;;;12.40;4.70;;;;;;5022492;28;20561;-70
2024/01/01 11:03:33;;;;;;;4.37;0.90;;;12.30;4.30;;;;;;5024310;28;20913;-70
2024/01/01 11:06:20;;;;;;;4.80;1.13;;;12.30;4.50;;;;;;5022238;28;20537;-69
2024/01/01 11:08:46;;;;;;;4.17;0.90;;;12.40;4.80;;;;;;5012602;28;20456;-69
2024/01/01 11:11:24;;;;;;;4.30;1.13;;;12.40;4.30;;;;;;5021042;28;20459;-69
2024/01/01 11:13:54;;;;;;;3.77;1.00;;;12.30;4.20;;;;;;5020888;28;20463;-69
2024/01/01 11:16:22;;;;;;;4.93;0.93;;;12.40;4.50;;;;;;5018777;28;20502;-69
2024/01/01 11:18:49;;;;;;;7.77;2.10;;;12.40;4.00;;;;;;5022012;28;20474;-69
2024/01/01 11:21:32;;;;;;;6.03;1.43;;;12.40;3.50;;;;;;5026666;28;20470;-69
2024/01/01 11:24:01;;;;;;;6.63;1.40;;;12.60;3.60;;;;;;5014839;28;20458;-69
2024/01/01 11:26:36;;;;;;;4.93;1.30;;;12.60;3.30;;;;;;5028855;28;20862;-69
2024/01/01 11:29:05;;;;;;;4.20;1.20;;;12.70;3.40;;;;;;5023351;28;20465;-69
2024/01/01 11:31:33;;;;;;;4.37;1.20;;;12.90;3.30;;;;;;5009205;28;20476;-68
2024/01/01 11:34:08;;;;;;;7.40;1.40;;;12.80;2.50;;;;;;5022281;28;20554;-69
2024/01/01 11:36:40;;;;;;;4.97;1.23;;;12.90;2.70;;;;;;5023299;28;20469;-69
2024/01/01 11:39:07;;;;;;;10.80;1.57;;;12.90;2.70;;;;;;5020333;28;20513;-69
2024/01/01 11:41:36;;;;;;;4.13;1.20;;;12.90;2.30;;;;;;5018694;28;21293;-69
2024/01/01 11:44:10;;;;;;;5.63;1.47;;;12.90;2.20;;;;;;5019181;28;20976;-69
2024/01/01 11:46:36;;;;;;;6.20;1.20;;;12.90;2.50;;;;;;5019564;28;20479;-69
2024/01/01 11:49:04;;;;;;;9.20;1.57;;;12.90;2.50;;;;;;5017474;28;20475;-69
2024/01/01 11:51:32;;;;;;;4.07;1.20;;;12.90;2.70;;;;;;5018297;28;20469;-69
2024/01/01 11:54:10;;;;;;;5.37;1.27;;;12.90;2.60;;;;;;5016486;28;20471;-69
2024/01/01 11:56:38;;;;;;;4.97;1.20;;;12.90;2.90;;;;;;5012132;28;20466;-68
2024/01/01 11:59:07;;;;;;;3.87;1.03;;;12.90;3.20;;;;;;5020759;28;20853;-69
2024/01/01 12:01:34;;;;;;;5.17;1.30;;;12.90;2.80;;;;;;5016265;28;21138;-69
2024/01/01 12:04:05;;;;;;;8.37;1.23;;;12.80;2.20;;;;;;5018436;28;20466;-69
2024/01/01 12:06:32;;;;;;;4.40;1.13;;;12.70;1.90;;;;;;5022802;28;20485;-69
2024/01/01 12:09:06;;;;;;;4.00;1.10;;;12.60;2.50;;;;;;5019942;28;20467;-69
2024/01/01 12:11:34;;;;;;;7.20;1.27;;;12.50;2.60;;;;;;5017884;28;21002;-68
2024/01/01 12:14:03;;;;;;;4.77;1.20;;;12.40;2.40;;;;;;5025328;28;20569;-69
2024/01/01 12:16:31;;;;;;;4.77;1.23;;;12.30;2.90;;;;;;5026977;28;20455;-69
2024/01/01 12:18:58;;;;;;;7.93;1.20;;;12.20;3.10;;;;;;5015747;28;20877;-69
2024/01/01 12:21:26;;;;;;;4.60;1.10;;;12.10;3.30;;;;;;5018488;28;20469;-68
2024/01/01 12:24:04;;;;;;;7.30;1.20;;;12.00;3.30;;;;;;5017792;28;21110;-68
2024/01/01 12:26:31;;;;;;;7.27;1.33;;;11.70;3.80;;;;;;5023510;28;20490;-69
2024/01/01 12:29:11;;;;;;;6.03;1.30;;;11.60;3.80;;;;;;5019275;28;20966;-68
2024/01/01 12:31:38;;;;;;;4.30;1.50;;;11.40;4.00;;;;;;5014838;28;20478;-68
2024/01/01 12:34:06;;;;;;;6.37;1.83;;;11.20;4.60;;;;;;5020127;28;20983;-69
2024/01/01 12:36:33;;;;;;;6.67;1.70;;;11.00;5.30;;;;;;5019806;28;21039;-69
2024/01/01 12:39:01;;;;;;;7.20;2.17;;;10.80;5.90;;;;;;5013229;28;20467;-69
2024/01/01 12:41:28;;;;;;;6.13;1.27;;;10.60;6.30;;;;;;5020428;28;20520;-69
2024/01/01 12:43:54;;;;;;;9.93;3.70;;;10.60;6.80;;;;;;5015900;28;20521;-69
2024/01/01 12:46:22;;;;;;;8.77;3.50;;;10.40;7.00;;;;;;5020905;28;20494;-68
2024/01/01 12:48:49;;;;;;;6.60;3.87;;;10.30;7.20;;;;;;5014377;28;20974;-68
2024/01/01 12:51:18;;;;;;;6.20;2.97;;;10.10;7.50;;;;;;5009106;28;20470;-68
2024/01/01 12:53:45;;;;;;;6.00;2.10;;;10.00;7.70;;;;;;5028609;28;20451;-67
2024/01/01 12:56:12;;;;;;;5.80;1.83;;;9.90;8.10;;;;;;5028604;28;20507;-68